Airfield :







YOU CAN JOIN US ON...

 
LOGIN :

Register | Disclaimer

   EN    FR    IT 

 









Legend :    VFR   Marginal VFR   IFR   Intensive IFR   Very Intensive IFR
Visi :
Ceiling :
>= 8 km
>= 3000ft
5 to 8 km
1000 to 3000 ft
1500m to 5 km
500 to 1000 ft
800 to 1500m
200 to 500 ft
< 800m
< 200 ft
Symbols :   Thunderstorms  Fog  Heavy snow  Heavy precipitations  Wind > 20 kt







- Airport Elevation : 172 ft
- IATA code : YYY


CYYY - Mont Joli

CURRENT METAR :
  • 230600Z 24016G24KT 5SM -RA BR BKN010 OVC045 20/19 A2947 RMK SF5SC3 SLP980 DENSITY ALT 1400FT

EXPIRED METARs :
  • 230500Z 22011G17KT 5SM -RA BR SCT016 OVC040 20/19 A2949 RMK SF4SC4 SLP987 DENSITY ALT 1400FT
  • 230400Z 21013KT 6SM -RA BR SCT015 OVC036 20/19 A2951 RMK SF3SC5 SLP996 DENSITY ALT 1300FT

TAF TAF CYYY
Valid from the 23 at 02:00 until the 23 at 14:00 UTC


230138Z 2302/2314 22020G30KT P6SM -RA OVC040
TEMPO 2302/2305 4SM -RA BR OVC030
FM230500 25018G28KT 3/4SM -RA BR OVC005
TEMPO 2305/2313 4SM -SHRA BR SCT005 OVC015
FM231300 24015G25KT 2SM -RA BR BKN008 OVC020
TEMPO 2313/2314 P6SM NSW FEW008 OVC025 RMK NXT FCST BY 230800Z
No reported NOTAMs for that airfield.



MET'MAP, your aeronautical weather chart ! - Copyright ORBIFLY December 2007 - Disclaimer

ORBIFLY MET'MAP TEAM :

Programming & Development : Alexandra Zaïnal
Concept & Development : Baudouin d'Aumeries
Co-Development & Prog : Marc-Olivier Méhu
Technical & hardware support : Manuel Goepfert

Contact : metmap@orbifly.com




SOURCES & CREDITS :

   NOAA